Time;durP1;ratioP1;P1;durP2;ratioP2;P2;SDS_P1;SDS_P2;PMS_P1;PMS_P2;Temp;Humidity;BMP_temperature;BMP_pressure;BME280_temperature;BME280_humidity;BME280_pressure;Samples;Min_cycle;Max_cycle;Signal;HPM_P1;HPM_P2
2023/12/21 00:01:51;;;;;;;6.53;1.95;;;8.30;99.90;;;;;;5013037;28;20198;-69
2023/12/21 00:04:18;;;;;;;3.70;2.07;;;8.70;99.90;;;;;;5005021;28;20206;-70
2023/12/21 00:06:45;;;;;;;10.97;2.40;;;8.70;99.90;;;;;;4980357;28;20209;-70
2023/12/21 00:09:12;;;;;;;5.32;1.67;;;8.70;99.90;;;;;;5005870;28;20202;-70
2023/12/21 00:11:39;;;;;;;7.18;1.67;;;8.60;99.90;;;;;;5002266;28;20218;-69
2023/12/21 00:14:06;;;;;;;6.38;1.98;;;8.60;99.90;;;;;;5016435;28;20593;-70
2023/12/21 00:16:32;;;;;;;10.23;2.20;;;8.60;99.90;;;;;;5009702;28;20685;-70
2023/12/21 00:19:01;;;;;;;6.63;1.75;;;8.60;99.90;;;;;;5010683;28;20595;-69
2023/12/21 00:21:29;;;;;;;9.60;1.63;;;9.20;99.90;;;;;;4989007;28;20205;-69
2023/12/21 00:23:56;;;;;;;5.95;1.75;;;8.80;99.90;;;;;;5010544;28;20217;-70
2023/12/21 00:26:23;;;;;;;6.43;1.95;;;8.60;99.90;;;;;;5023954;28;20427;-70
2023/12/21 00:28:50;;;;;;;9.43;2.35;;;8.50;99.90;;;;;;5015418;28;20197;-70
2023/12/21 00:31:16;;;;;;;9.57;1.98;;;8.60;99.90;;;;;;5009165;28;20209;-69
2023/12/21 00:33:43;;;;;;;9.15;1.70;;;8.50;99.90;;;;;;5013359;28;20235;-70
2023/12/21 00:36:17;;;;;;;4.95;1.83;;;8.60;99.90;;;;;;4984503;28;20213;-69
2023/12/21 00:38:44;;;;;;;9.73;1.88;;;8.60;99.90;;;;;;5010152;28;20794;-70
2023/12/21 00:41:11;;;;;;;12.88;2.08;;;8.60;99.90;;;;;;5009912;28;20671;-70
2023/12/21 00:43:38;;;;;;;11.07;1.95;;;8.50;99.90;;;;;;5003695;28;21421;-70
2023/12/21 00:46:05;;;;;;;8.45;2.13;;;8.50;99.90;;;;;;5006071;28;20244;-70
2023/12/21 00:48:32;;;;;;;13.88;2.33;;;8.60;99.90;;;;;;5012696;28;20324;-69
2023/12/21 00:50:59;;;;;;;15.70;1.98;;;8.60;99.90;;;;;;5012003;28;20201;-70
2023/12/21 00:53:27;;;;;;;9.15;1.85;;;6.40;99.90;;;;;;4980641;28;20205;-69
2023/12/21 00:55:54;;;;;;;9.88;2.15;;;8.50;99.90;;;;;;5007320;28;20206;-70
2023/12/21 00:58:21;;;;;;;9.00;2.67;;;8.60;99.90;;;;;;5013101;28;20202;-70
2023/12/21 01:00:48;;;;;;;5.88;1.60;;;8.60;99.90;;;;;;5005923;28;20671;-70
2023/12/21 01:03:15;;;;;;;14.10;2.25;;;8.60;99.90;;;;;;5004228;28;20209;-70
2023/12/21 01:05:42;;;;;;;10.60;2.03;;;8.60;99.90;;;;;;5007835;28;20210;-69
2023/12/21 01:08:09;;;;;;;8.60;2.28;;;8.50;99.90;;;;;;4984684;28;20209;-70
2023/12/21 01:10:38;;;;;;;11.98;1.92;;;8.60;99.90;;;;;;5010957;28;20198;-70
2023/12/21 01:13:05;;;;;;;14.00;2.33;;;8.60;99.90;;;;;;5020605;28;20612;-70
2023/12/21 01:15:32;;;;;;;14.65;2.25;;;8.60;99.90;;;;;;5010688;28;20233;-70
2023/12/21 01:17:59;;;;;;;11.93;2.22;;;8.60;99.90;;;;;;5008474;28;20205;-70
2023/12/21 01:20:26;;;;;;;15.20;2.60;;;8.60;99.90;;;;;;5022819;28;20292;-69
2023/12/21 01:22:53;;;;;;;13.15;2.50;;;8.60;99.90;;;;;;4974297;28;20278;-70
2023/12/21 01:25:20;;;;;;;10.00;2.17;;;8.60;99.90;;;;;;5014559;28;20792;-69
2023/12/21 01:27:48;;;;;;;8.88;2.03;;;8.60;99.90;;;;;;5008596;28;20205;-69
2023/12/21 01:30:15;;;;;;;17.10;2.05;;;8.60;99.90;;;;;;5009714;28;20241;-70
2023/12/21 01:32:42;;;;;;;6.30;1.92;;;;;;;;;;5019053;28;20309;-70
2023/12/21 01:35:09;;;;;;;10.25;2.20;;;8.60;99.90;;;;;;5007633;28;20222;-70
2023/12/21 01:37:36;;;;;;;10.95;1.60;;;8.60;99.90;;;;;;5010585;28;20201;-69
2023/12/21 01:40:03;;;;;;;13.75;2.00;;;8.70;99.90;;;;;;4981491;28;20257;-69
2023/12/21 01:42:30;;;;;;;10.07;2.35;;;8.60;99.90;;;;;;5006826;28;20202;-69
2023/12/21 01:44:58;;;;;;;7.30;1.73;;;8.60;99.90;;;;;;5007710;28;20237;-70
2023/12/21 01:47:25;;;;;;;11.07;1.90;;;8.50;99.90;;;;;;5015542;28;20197;-69
2023/12/21 01:49:52;;;;;;;8.05;2.78;;;8.90;99.90;;;;;;5005873;28;20332;-70
2023/12/21 01:52:20;;;;;;;13.07;2.30;;;8.60;99.90;;;;;;5017965;28;20194;-70
2023/12/21 01:54:47;;;;;;;9.32;2.53;;;8.60;99.90;;;;;;4974901;28;21725;-70
2023/12/21 01:57:15;;;;;;;11.02;2.33;;;10.00;99.90;;;;;;4997170;28;21027;-69
2023/12/21 01:59:41;;;;;;;11.80;2.58;;;8.60;99.90;;;;;;5009881;28;20237;-69
2023/12/21 02:02:10;;;;;;;12.50;2.45;;;8.60;99.90;;;;;;5003973;28;20215;-69
2023/12/21 02:04:37;;;;;;;17.98;3.10;;;;;;;;;;5007832;28;20201;-70
2023/12/21 02:07:04;;;;;;;14.68;2.42;;;8.60;99.90;;;;;;5009264;28;20209;-69
2023/12/21 02:09:31;;;;;;;18.70;2.83;;;8.60;99.90;;;;;;5007424;28;20292;-70
2023/12/21 02:11:58;;;;;;;11.80;2.63;;;8.70;99.90;;;;;;4966021;28;20328;-70
2023/12/21 02:14:25;;;;;;;8.73;2.00;;;8.60;99.90;;;;;;5013202;28;20229;-70
2023/12/21 02:16:56;;;;;;;7.10;1.55;;;8.60;99.90;;;;;;4999183;28;20204;-70
2023/12/21 02:19:25;;;;;;;14.20;2.33;;;8.70;99.90;;;;;;5008257;28;20210;-70
2023/12/21 02:21:55;;;;;;;12.75;2.00;;;8.70;99.90;;;;;;5016308;28;20205;-70
2023/12/21 02:24:24;;;;;;;20.88;1.98;;;8.70;99.90;;;;;;4997521;28;20216;-71
2023/12/21 02:26:50;;;;;;;9.52;2.40;;;8.60;99.90;;;;;;4974635;28;20220;-70
2023/12/21 02:29:17;;;;;;;9.55;2.58;;;8.60;99.90;;;;;;5019742;28;20201;-70
2023/12/21 02:31:44;;;;;;;8.80;2.40;;;8.60;99.90;;;;;;5009764;28;20622;-70
2023/12/21 02:34:11;;;;;;;7.00;2.05;;;8.80;99.90;;;;;;5016031;28;20229;-70
2023/12/21 02:36:38;;;;;;;4.88;1.52;;;8.60;99.90;;;;;;5004528;28;20290;-69
2023/12/21 02:39:05;;;;;;;12.27;2.30;;;8.60;99.90;;;;;;5012071;28;20752;-70
2023/12/21 02:41:33;;;;;;;12.25;2.35;;;8.70;99.90;;;;;;4974865;28;20713;-69
2023/12/21 02:44:00;;;;;;;8.55;2.25;;;8.60;99.90;;;;;;5008466;28;20212;-69
2023/12/21 02:46:28;;;;;;;7.28;2.05;;;8.70;99.90;;;;;;5006594;28;20655;-70
2023/12/21 02:48:55;;;;;;;6.78;2.40;;;8.70;99.90;;;;;;5018326;28;20292;-70
2023/12/21 02:51:22;;;;;;;12.07;1.83;;;8.60;99.90;;;;;;5000069;28;20198;-70
2023/12/21 02:53:49;;;;;;;5.00;1.75;;;8.10;99.90;;;;;;5005106;28;21031;-69
2023/12/21 02:56:16;;;;;;;5.95;1.45;;;8.30;99.90;;;;;;5005245;28;20231;-70
2023/12/21 02:58:44;;;;;;;3.22;1.13;;;8.70;99.90;;;;;;4974368;28;20208;-70
2023/12/21 03:01:11;;;;;;;6.30;1.65;;;8.70;99.90;;;;;;5009557;28;20239;-70
2023/12/21 03:03:38;;;;;;;3.00;1.35;;;;;;;;;;5002583;28;20202;-70
2023/12/21 03:06:06;;;;;;;5.40;1.70;;;8.60;99.90;;;;;;5005504;28;20209;-69
2023/12/21 03:08:33;;;;;;;6.10;1.65;;;;;;;;;;5009572;28;20582;-70
2023/12/21 03:11:00;;;;;;;2.50;1.52;;;8.60;99.90;;;;;;5002836;28;20290;-69
2023/12/21 03:13:27;;;;;;;5.00;1.40;;;8.70;99.90;;;;;;4967025;28;20206;-69
2023/12/21 03:15:55;;;;;;;6.85;1.50;;;8.70;99.90;;;;;;5013216;28;20229;-69
2023/12/21 03:18:22;;;;;;;5.00;1.40;;;8.70;99.90;;;;;;5007305;28;20831;-70
2023/12/21 03:20:49;;;;;;;5.78;1.50;;;;;;;;;;5014859;28;20632;-70
2023/12/21 03:23:16;;;;;;;6.47;1.30;;;8.70;99.90;;;;;;5005030;28;20644;-70
2023/12/21 03:25:43;;;;;;;4.10;1.30;;;8.80;99.90;;;;;;4991622;28;20212;-70
2023/12/21 03:28:10;;;;;;;4.75;1.60;;;8.60;99.90;;;;;;4972375;28;20212;-69
2023/12/21 03:30:37;;;;;;;1.88;1.58;;;8.70;99.90;;;;;;5015946;28;20587;-69
2023/12/21 03:33:06;;;;;;;5.78;2.17;;;8.70;99.90;;;;;;5006042;28;20313;-70
2023/12/21 03:35:32;;;;;;;4.95;1.90;;;8.70;99.90;;;;;;5010588;28;20228;-69
2023/12/21 03:37:59;;;;;;;2.88;1.80;;;8.70;99.90;;;;;;5002579;28;20198;-69
2023/12/21 03:40:26;;;;;;;5.07;1.95;;;8.70;99.90;;;;;;5008602;28;20205;-69
2023/12/21 03:42:53;;;;;;;11.32;1.70;;;8.70;99.90;;;;;;4977140;28;20215;-70
2023/12/21 03:45:20;;;;;;;8.63;2.28;;;8.70;99.90;;;;;;4997467;28;20382;-70
2023/12/21 03:47:48;;;;;;;3.88;1.40;;;8.70;99.90;;;;;;5007344;28;20316;-69
2023/12/21 03:50:16;;;;;;;1.77;1.30;;;8.70;99.90;;;;;;5012000;28;20838;-70
2023/12/21 03:52:43;;;;;;;6.95;1.60;;;8.70;99.90;;;;;;5014396;28;20205;-70
2023/12/21 03:55:10;;;;;;;4.03;1.73;;;8.70;99.90;;;;;;5019619;28;20228;-70
2023/12/21 03:57:37;;;;;;;2.72;1.83;;;8.70;99.90;;;;;;4977370;28;20210;-69
2023/12/21 04:00:04;;;;;;;10.65;1.92;;;8.70;99.90;;;;;;5008793;28;20197;-70
2023/12/21 04:02:32;;;;;;;5.10;1.73;;;8.80;99.90;;;;;;5014559;28;20572;-70
2023/12/21 04:04:59;;;;;;;1.60;1.40;;;8.70;99.90;;;;;;4996859;28;20913;-69
2023/12/21 04:07:27;;;;;;;6.07;1.63;;;8.70;99.90;;;;;;5016311;28;20209;-70
2023/12/21 04:09:54;;;;;;;4.07;1.70;;;8.70;99.90;;;;;;5008790;28;20201;-70
2023/12/21 04:12:21;;;;;;;7.82;2.10;;;8.60;99.90;;;;;;4999102;28;21372;-69
2023/12/21 04:14:48;;;;;;;6.45;1.77;;;8.80;99.90;;;;;;4976728;28;20301;-69
2023/12/21 04:17:15;;;;;;;4.78;1.67;;;8.80;99.90;;;;;;5010184;28;21233;-69
2023/12/21 04:19:42;;;;;;;4.65;1.75;;;8.80;99.90;;;;;;5010920;28;20227;-69
2023/12/21 04:22:08;;;;;;;3.53;1.95;;;8.90;99.90;;;;;;5019950;28;20193;-70
2023/12/21 04:24:37;;;;;;;5.45;1.70;;;9.70;99.90;;;;;;5012736;28;20198;-70
2023/12/21 04:27:04;;;;;;;5.97;1.60;;;8.40;99.90;;;;;;4992521;28;20198;-70
2023/12/21 04:29:31;;;;;;;3.35;1.50;;;8.80;99.90;;;;;;4985280;28;20735;-70
2023/12/21 04:31:58;;;;;;;7.53;1.90;;;;;;;;;;5002074;28;21111;-70
2023/12/21 04:34:25;;;;;;;5.55;1.90;;;8.80;99.90;;;;;;5012750;28;20229;-69
2023/12/21 04:36:52;;;;;;;4.82;1.33;;;;;;;;;;5010637;28;20289;-69
2023/12/21 04:39:20;;;;;;;4.95;1.85;;;8.80;99.90;;;;;;5004906;28;20220;-70
2023/12/21 04:41:48;;;;;;;6.05;1.60;;;8.80;99.90;;;;;;5016967;28;20984;-70
2023/12/21 04:44:15;;;;;;;5.28;1.60;;;8.80;99.90;;;;;;4983069;28;20206;-70
2023/12/21 04:46:47;;;;;;;7.95;1.98;;;8.80;99.90;;;;;;4983760;28;20229;-69
2023/12/21 04:49:14;;;;;;;4.97;1.80;;;8.80;99.90;;;;;;5006664;28;20626;-69
2023/12/21 04:51:41;;;;;;;6.82;1.80;;;8.70;99.90;;;;;;4998668;28;20204;-69
2023/12/21 04:54:08;;;;;;;4.07;1.70;;;8.90;99.90;;;;;;5020386;28;20205;-70
2023/12/21 04:56:39;;;;;;;6.85;1.90;;;8.80;99.90;;;;;;4996039;28;20703;-70
2023/12/21 04:59:07;;;;;;;3.38;1.90;;;8.60;99.90;;;;;;4999765;28;20197;-69
2023/12/21 05:01:34;;;;;;;3.17;1.80;;;8.90;99.90;;;;;;4959424;28;22079;-70
2023/12/21 05:04:03;;;;;;;3.58;1.90;;;8.80;99.90;;;;;;4999788;28;20956;-69
2023/12/21 05:06:30;;;;;;;8.55;2.67;;;8.90;99.90;;;;;;4998202;28;20221;-70
2023/12/21 05:08:57;;;;;;;5.68;1.70;;;8.90;99.90;;;;;;4997451;28;20210;-70
2023/12/21 05:11:24;;;;;;;3.05;1.65;;;8.80;99.90;;;;;;5001115;28;20206;-69
2023/12/21 05:13:50;;;;;;;5.65;1.67;;;9.20;99.90;;;;;;4999179;28;20205;-70
2023/12/21 05:16:19;;;;;;;6.07;1.45;;;8.80;99.90;;;;;;4977772;28;20229;-70
2023/12/21 05:18:47;;;;;;;6.30;1.63;;;8.80;99.90;;;;;;5005758;28;20223;-70
2023/12/21 05:21:14;;;;;;;3.40;1.40;;;8.80;99.90;;;;;;5013288;28;20227;-70
2023/12/21 05:23:41;;;;;;;1.25;1.15;;;8.90;99.90;;;;;;4989426;28;20205;-70
2023/12/21 05:26:12;;;;;;;5.32;1.10;;;8.80;99.90;;;;;;4998174;28;20220;-69
2023/12/21 05:28:39;;;;;;;1.75;1.40;;;8.90;99.90;;;;;;4987503;28;20201;-69
2023/12/21 05:31:07;;;;;;;1.10;0.98;;;8.90;99.90;;;;;;5005796;28;20206;-70
2023/12/21 05:33:36;;;;;;;1.52;0.93;;;8.80;99.90;;;;;;4981509;28;20275;-70
2023/12/21 05:36:03;;;;;;;0.65;0.65;;;8.80;99.90;;;;;;5014057;28;20243;-70
2023/12/21 05:38:30;;;;;;;3.20;1.05;;;8.90;99.90;;;;;;4989926;28;20224;-70
2023/12/21 05:40:57;;;;;;;0.70;0.70;;;8.80;99.90;;;;;;4999469;28;20651;-69
2023/12/21 05:43:24;;;;;;;1.02;0.93;;;8.80;99.90;;;;;;5000133;28;20209;-70
2023/12/21 05:45:51;;;;;;;0.90;0.63;;;8.80;99.90;;;;;;5000688;28;20322;-70
2023/12/21 05:48:17;;;;;;;1.15;0.57;;;8.80;99.90;;;;;;4982322;28;20796;-70
2023/12/21 05:50:46;;;;;;;2.00;0.98;;;8.80;99.90;;;;;;5016118;28;20217;-70
2023/12/21 05:53:13;;;;;;;0.90;0.60;;;8.80;99.90;;;;;;5000686;28;20595;-70
2023/12/21 05:55:39;;;;;;;0.65;0.65;;;8.80;99.90;;;;;;4975707;28;20230;-69
2023/12/21 05:58:05;;;;;;;1.00;0.70;;;8.80;99.90;;;;;;5000675;28;20236;-69
2023/12/21 06:00:32;;;;;;;1.00;0.47;;;8.80;99.90;;;;;;5012529;28;20218;-70
2023/12/21 06:02:59;;;;;;;0.88;0.70;;;8.90;99.90;;;;;;4957033;28;20696;-70
2023/12/21 06:05:26;;;;;;;0.60;0.60;;;8.80;99.90;;;;;;5017326;28;20232;-69
2023/12/21 06:07:57;;;;;;;0.40;0.40;;;8.80;99.90;;;;;;5006610;28;20236;-70
2023/12/21 06:10:24;;;;;;;3.30;0.57;;;8.80;99.90;;;;;;5002364;28;20209;-69
2023/12/21 06:12:51;;;;;;;0.75;0.60;;;8.80;99.90;;;;;;4992207;28;20225;-70
2023/12/21 06:15:18;;;;;;;1.90;0.52;;;9.20;99.90;;;;;;5009313;28;20233;-70
2023/12/21 06:17:45;;;;;;;0.43;0.43;;;;;;;;;;4960933;28;20221;-69
2023/12/21 06:20:12;;;;;;;1.95;0.73;;;9.00;99.90;;;;;;5001515;28;20718;-70
2023/12/21 06:22:39;;;;;;;0.60;0.60;;;9.40;99.90;;;;;;5001454;28;20218;-70
2023/12/21 06:25:08;;;;;;;0.60;0.60;;;9.20;99.90;;;;;;5000421;28;20216;-70
2023/12/21 06:27:35;;;;;;;0.40;0.38;;;9.10;99.90;;;;;;5005506;28;20232;-69
2023/12/21 06:30:02;;;;;;;1.55;0.60;;;9.00;99.90;;;;;;5006778;28;20200;-69
2023/12/21 06:32:29;;;;;;;0.73;0.73;;;9.00;99.90;;;;;;5005304;28;20201;-69
2023/12/21 06:34:55;;;;;;;1.00;0.80;;;8.90;99.90;;;;;;4978463;28;20205;-70
2023/12/21 06:37:23;;;;;;;1.08;0.98;;;;;;;;;;5019962;28;20683;-69
2023/12/21 06:39:50;;;;;;;0.55;0.55;;;9.00;99.90;;;;;;5008949;28;20801;-70
2023/12/21 06:42:18;;;;;;;0.60;0.60;;;9.00;99.90;;;;;;5009759;28;20298;-69
2023/12/21 06:44:45;;;;;;;1.92;0.68;;;8.80;99.90;;;;;;5009929;28;20230;-69
2023/12/21 06:47:11;;;;;;;1.50;0.70;;;8.90;99.90;;;;;;5015100;28;20224;-69
2023/12/21 06:49:38;;;;;;;3.27;0.50;;;9.00;99.90;;;;;;4974369;28;20208;-69
2023/12/21 06:52:05;;;;;;;0.40;0.40;;;8.90;99.90;;;;;;5015211;28;20313;-70
2023/12/21 06:54:34;;;;;;;0.73;0.73;;;9.00;99.90;;;;;;5018816;28;20270;-69
2023/12/21 06:57:01;;;;;;;1.13;0.77;;;9.00;99.90;;;;;;4992646;28;20234;-69
2023/12/21 06:59:30;;;;;;;1.58;0.65;;;9.00;99.90;;;;;;5014410;28;20204;-69
2023/12/21 07:01:57;;;;;;;1.08;0.80;;;9.00;99.90;;;;;;5014746;28;20715;-69
2023/12/21 07:04:24;;;;;;;0.80;0.80;;;9.00;99.90;;;;;;5007919;28;20208;-69
2023/12/21 07:06:51;;;;;;;0.75;0.70;;;8.80;99.90;;;;;;4982726;28;20222;-69
2023/12/21 07:09:19;;;;;;;2.67;0.63;;;8.90;99.90;;;;;;5015072;28;20239;-69
2023/12/21 07:11:46;;;;;;;0.50;0.50;;;8.90;99.90;;;;;;5000707;28;20241;-70
2023/12/21 07:14:13;;;;;;;0.50;0.40;;;9.00;99.90;;;;;;5007182;28;20202;-69
2023/12/21 07:16:41;;;;;;;0.95;0.65;;;9.00;99.90;;;;;;5011949;28;20229;-69
2023/12/21 07:19:08;;;;;;;2.42;0.60;;;9.00;99.90;;;;;;5002372;28;20342;-69
2023/12/21 07:21:35;;;;;;;0.52;0.50;;;9.00;99.90;;;;;;4979776;28;20337;-69
2023/12/21 07:24:02;;;;;;;0.88;0.60;;;9.00;99.90;;;;;;5016980;28;20486;-69
2023/12/21 07:26:29;;;;;;;1.35;0.43;;;9.00;99.90;;;;;;5001374;28;20251;-69
2023/12/21 07:28:55;;;;;;;2.22;0.60;;;9.00;99.90;;;;;;4994641;28;20568;-69
2023/12/21 07:31:22;;;;;;;0.40;0.40;;;9.00;99.90;;;;;;5019397;28;20656;-69
2023/12/21 07:33:51;;;;;;;0.20;0.20;;;9.00;99.90;;;;;;5010193;28;20675;-69
2023/12/21 07:36:18;;;;;;;0.30;0.30;;;9.00;99.90;;;;;;4975185;28;20970;-69
2023/12/21 07:38:44;;;;;;;1.55;0.70;;;9.00;99.90;;;;;;5017411;28;20208;-69
2023/12/21 07:41:12;;;;;;;5.07;0.70;;;9.00;99.90;;;;;;5016542;28;20409;-69
2023/12/21 07:43:39;;;;;;;0.63;0.63;;;9.00;99.90;;;;;;4984917;28;20204;-69
2023/12/21 07:46:07;;;;;;;0.65;0.45;;;9.00;99.90;;;;;;4978996;28;21407;-69
2023/12/21 07:48:34;;;;;;;2.13;0.93;;;9.00;99.90;;;;;;5013097;28;20455;-69
2023/12/21 07:51:02;;;;;;;0.40;0.40;;;9.10;99.90;;;;;;4970186;28;20217;-70
2023/12/21 07:53:29;;;;;;;10.23;1.23;;;9.00;99.90;;;;;;5019144;28;20364;-69
2023/12/21 07:55:56;;;;;;;1.83;0.70;;;9.10;99.90;;;;;;5005968;28;20234;-69
2023/12/21 07:58:23;;;;;;;0.98;0.90;;;9.10;99.90;;;;;;4993386;28;20554;-69
2023/12/21 08:00:50;;;;;;;3.20;0.52;;;9.10;99.90;;;;;;5001801;28;20579;-70
2023/12/21 08:03:16;;;;;;;1.45;0.35;;;9.10;99.90;;;;;;5016545;28;20217;-70
2023/12/21 08:05:43;;;;;;;2.25;0.82;;;9.10;99.90;;;;;;5007367;28;20577;-69
2023/12/21 08:08:12;;;;;;;1.17;0.98;;;10.20;99.90;;;;;;4983388;28;20209;-69
2023/12/21 08:10:39;;;;;;;2.10;0.70;;;9.10;99.90;;;;;;5014401;28;20296;-70
2023/12/21 08:13:09;;;;;;;3.50;0.52;;;9.10;99.90;;;;;;5003059;28;20316;-69
2023/12/21 08:15:35;;;;;;;1.90;0.90;;;9.10;99.90;;;;;;4989706;28;20272;-69
2023/12/21 08:18:02;;;;;;;1.05;0.73;;;9.20;99.90;;;;;;5014238;28;20205;-69
2023/12/21 08:20:30;;;;;;;1.52;0.60;;;9.20;99.90;;;;;;4999988;28;21974;-69
2023/12/21 08:22:58;;;;;;;0.98;0.55;;;9.10;99.90;;;;;;4982147;28;20372;-69
2023/12/21 08:25:26;;;;;;;5.10;0.93;;;9.20;99.90;;;;;;5006908;28;20654;-70
2023/12/21 08:27:52;;;;;;;2.13;0.68;;;9.20;99.90;;;;;;5000491;28;20206;-70
2023/12/21 08:30:20;;;;;;;1.13;0.90;;;9.20;99.90;;;;;;4980623;28;20220;-70
2023/12/21 08:32:47;;;;;;;1.95;0.80;;;9.20;99.90;;;;;;4997877;28;20213;-70
2023/12/21 08:35:14;;;;;;;1.15;0.70;;;9.20;99.90;;;;;;5007591;28;20214;-70
2023/12/21 08:37:41;;;;;;;2.40;0.90;;;;;;;;;;4958362;28;20230;-71
2023/12/21 08:40:10;;;;;;;1.67;0.47;;;9.20;99.90;;;;;;5003390;28;20871;-71
2023/12/21 08:42:38;;;;;;;1.85;0.70;;;9.20;99.90;;;;;;5013702;28;20835;-71
2023/12/21 08:45:06;;;;;;;0.82;0.75;;;9.30;99.90;;;;;;4987802;28;20974;-70
2023/12/21 08:47:40;;;;;;;0.40;0.40;;;9.20;99.90;;;;;;4998846;28;20213;-70
2023/12/21 08:50:08;;;;;;;3.20;0.80;;;9.20;99.90;;;;;;5012514;28;20284;-70
2023/12/21 08:52:36;;;;;;;0.88;0.57;;;;;;;;;;4986469;28;20270;-71
2023/12/21 08:55:04;;;;;;;2.55;0.50;;;9.20;99.90;;;;;;4982580;28;20866;-70
2023/12/21 08:57:32;;;;;;;0.60;0.47;;;9.20;99.90;;;;;;5010398;28;20233;-70
2023/12/21 09:00:03;;;;;;;0.45;0.40;;;9.20;99.90;;;;;;4996463;28;21578;-71
2023/12/21 09:02:30;;;;;;;0.32;0.32;;;9.50;99.90;;;;;;5004727;28;20302;-71
2023/12/21 09:04:58;;;;;;;2.83;0.68;;;9.80;99.90;;;;;;5006089;28;20275;-71
2023/12/21 09:07:25;;;;;;;0.90;0.68;;;10.20;99.90;;;;;;5007486;28;20221;-70
2023/12/21 09:09:52;;;;;;;3.63;0.60;;;10.40;99.90;;;;;;4974970;28;20418;-70
2023/12/21 09:12:18;;;;;;;1.00;0.40;;;10.10;99.90;;;;;;5018896;28;20222;-70
2023/12/21 09:14:45;;;;;;;1.13;0.43;;;9.90;99.90;;;;;;4987949;28;20283;-71
2023/12/21 09:17:14;;;;;;;3.60;0.40;;;;;;;;;;5005876;28;20237;-70
2023/12/21 09:19:43;;;;;;;0.25;0.20;;;9.60;99.90;;;;;;5017847;28;20283;-71
2023/12/21 09:22:10;;;;;;;0.50;0.50;;;9.80;99.90;;;;;;5008189;28;20218;-71
2023/12/21 09:24:39;;;;;;;0.93;0.20;;;9.50;99.90;;;;;;4974162;28;20232;-70
2023/12/21 09:27:06;;;;;;;0.45;0.45;;;9.40;99.90;;;;;;5016896;28;20219;-71
2023/12/21 09:29:33;;;;;;;0.10;0.10;;;9.50;99.90;;;;;;5007579;28;20229;-71
2023/12/21 09:32:00;;;;;;;0.20;0.20;;;9.40;99.90;;;;;;5005027;28;20579;-71
2023/12/21 09:34:28;;;;;;;0.28;0.28;;;9.50;99.90;;;;;;5016142;28;20225;-70
2023/12/21 09:36:55;;;;;;;0.20;0.20;;;9.50;99.90;;;;;;5010505;28;20993;-71
2023/12/21 09:39:22;;;;;;;2.13;1.00;;;9.50;99.90;;;;;;4971808;28;20889;-70
2023/12/21 09:41:50;;;;;;;2.70;1.30;;;9.50;99.90;;;;;;5016328;28;21005;-70
2023/12/21 09:44:17;;;;;;;0.60;0.60;;;9.50;99.90;;;;;;5020196;28;20833;-70
2023/12/21 09:46:45;;;;;;;0.40;0.40;;;9.50;99.90;;;;;;5006917;28;20436;-70
2023/12/21 09:49:14;;;;;;;4.03;0.82;;;8.70;99.90;;;;;;4988992;28;20883;-71
2023/12/21 09:51:44;;;;;;;0.38;0.38;;;9.50;99.90;;;;;;4984940;28;20226;-70
2023/12/21 09:54:12;;;;;;;2.42;0.40;;;9.40;99.90;;;;;;4963751;28;21605;-71
2023/12/21 09:56:40;;;;;;;0.20;0.20;;;9.50;99.90;;;;;;4998293;28;20320;-70
2023/12/21 09:59:10;;;;;;;0.35;0.35;;;9.50;99.90;;;;;;5001816;28;20348;-71
2023/12/21 10:01:37;;;;;;;0.98;0.60;;;9.80;99.90;;;;;;4999897;28;20228;-71
2023/12/21 10:04:04;;;;;;;0.28;0.28;;;;;;;;;;5001248;28;20236;-70
2023/12/21 10:06:31;;;;;;;1.10;0.70;;;9.60;99.90;;;;;;5002133;28;20233;-71
2023/12/21 10:08:59;;;;;;;2.10;0.35;;;9.50;99.90;;;;;;4996208;28;20266;-70
2023/12/21 10:11:28;;;;;;;0.85;0.50;;;9.50;99.90;;;;;;4957412;28;20277;-70
2023/12/21 10:13:57;;;;;;;0.52;0.47;;;9.60;99.90;;;;;;5010617;28;20275;-70
2023/12/21 10:16:26;;;;;;;0.40;0.40;;;9.60;99.90;;;;;;5000298;28;20670;-71
2023/12/21 10:18:53;;;;;;;1.35;0.60;;;9.60;99.90;;;;;;5005997;28;20206;-70
2023/12/21 10:21:21;;;;;;;2.05;0.43;;;9.60;99.90;;;;;;5013815;28;20208;-70
2023/12/21 10:23:48;;;;;;;3.10;0.35;;;9.60;99.90;;;;;;5010214;28;20197;-70
2023/12/21 10:26:16;;;;;;;3.40;0.60;;;9.70;99.90;;;;;;4966333;28;20207;-71
2023/12/21 10:28:43;;;;;;;2.47;0.45;;;9.90;99.90;;;;;;4994349;28;20711;-70
2023/12/21 10:31:10;;;;;;;1.05;0.30;;;9.60;99.90;;;;;;4998449;28;21073;-70
2023/12/21 10:33:37;;;;;;;0.57;0.35;;;9.60;99.90;;;;;;4979033;28;20218;-70
2023/12/21 10:36:05;;;;;;;2.08;0.50;;;9.60;99.90;;;;;;5008180;28;20201;-70
2023/12/21 10:38:32;;;;;;;0.32;0.32;;;9.70;99.90;;;;;;5010072;28;20694;-70
2023/12/21 10:41:05;;;;;;;1.75;0.82;;;9.70;99.90;;;;;;5004031;28;20776;-71
2023/12/21 10:43:34;;;;;;;2.47;0.65;;;9.70;99.90;;;;;;4977362;28;20212;-70
2023/12/21 10:46:02;;;;;;;0.70;0.60;;;9.70;99.90;;;;;;5001979;28;20229;-70
2023/12/21 10:48:31;;;;;;;1.80;0.63;;;9.70;99.90;;;;;;4991380;28;20236;-70
2023/12/21 10:50:59;;;;;;;2.15;0.70;;;9.70;99.90;;;;;;4991618;28;20225;-70
2023/12/21 10:53:30;;;;;;;2.13;0.60;;;9.80;99.90;;;;;;5010975;28;20909;-70
2023/12/21 10:55:58;;;;;;;7.88;0.98;;;9.60;99.90;;;;;;4985963;28;20225;-70
2023/12/21 10:58:26;;;;;;;3.65;0.80;;;9.80;99.90;;;;;;4972000;28;20233;-70
2023/12/21 11:00:55;;;;;;;2.92;0.90;;;9.90;99.90;;;;;;5013031;28;20216;-70
2023/12/21 11:03:22;;;;;;;3.83;1.13;;;9.90;99.90;;;;;;4986521;28;20686;-70
2023/12/21 11:05:49;;;;;;;2.35;1.10;;;9.90;99.90;;;;;;5016448;28;20672;-70
2023/12/21 11:08:16;;;;;;;9.27;1.00;;;10.30;99.90;;;;;;5012059;28;20604;-70
2023/12/21 11:10:46;;;;;;;6.15;1.30;;;9.90;99.90;;;;;;5004880;28;20202;-70
2023/12/21 11:13:12;;;;;;;7.05;1.58;;;9.90;99.90;;;;;;4962937;28;20668;-70
2023/12/21 11:15:39;;;;;;;3.03;1.17;;;10.20;99.90;;;;;;5003901;28;20320;-70
2023/12/21 11:18:12;;;;;;;9.88;1.42;;;10.00;99.90;;;;;;5010751;28;20320;-70
2023/12/21 11:20:43;;;;;;;4.38;1.27;;;10.00;99.90;;;;;;4999106;28;20548;-70
2023/12/21 11:23:10;;;;;;;2.53;0.98;;;10.00;99.90;;;;;;5014014;28;20197;-70
2023/12/21 11:25:37;;;;;;;6.75;1.27;;;10.10;99.90;;;;;;5001948;28;20315;-70
2023/12/21 11:28:05;;;;;;;5.03;1.27;;;10.00;99.90;;;;;;4967503;28;20224;-70
2023/12/21 11:30:32;;;;;;;12.80;2.15;;;10.00;99.90;;;;;;5008974;28;20338;-70
2023/12/21 11:33:08;;;;;;;11.75;1.85;;;10.10;99.90;;;;;;4999162;28;20598;-70
2023/12/21 11:35:36;;;;;;;11.73;2.85;;;10.10;99.90;;;;;;4962862;28;20319;-70
2023/12/21 11:38:05;;;;;;;13.43;3.05;;;10.20;99.90;;;;;;4977448;28;20641;-70
2023/12/21 11:40:33;;;;;;;17.25;2.67;;;10.20;99.90;;;;;;4959328;28;20217;-70
2023/12/21 11:43:01;;;;;;;11.90;2.30;;;10.10;99.90;;;;;;4987671;28;20202;-70
2023/12/21 11:45:30;;;;;;;11.02;2.63;;;10.20;99.90;;;;;;4943672;28;21420;-70
2023/12/21 11:47:59;;;;;;;20.35;3.53;;;10.30;99.90;;;;;;4992540;28;20202;-69
2023/12/21 11:50:30;;;;;;;11.38;2.00;;;10.30;99.90;;;;;;4995937;28;20201;-70
2023/12/21 11:53:06;;;;;;;10.40;2.67;;;10.30;99.90;;;;;;4996813;28;22008;-70
2023/12/21 11:55:37;;;;;;;17.02;2.85;;;10.20;99.90;;;;;;4969051;28;20225;-70
2023/12/21 11:58:07;;;;;;;11.45;2.75;;;10.20;99.90;;;;;;4964425;28;20358;-70
2023/12/21 12:00:35;;;;;;;15.88;3.03;;;10.10;99.90;;;;;;4944083;28;20726;-70
2023/12/21 12:03:02;;;;;;;11.82;2.33;;;10.10;99.90;;;;;;4967056;28;20521;-70
2023/12/21 12:05:30;;;;;;;19.67;2.67;;;10.10;99.90;;;;;;4983381;28;20679;-70
2023/12/21 12:07:57;;;;;;;12.00;2.47;;;10.20;99.90;;;;;;4996926;28;20358;-70
2023/12/21 12:10:24;;;;;;;20.58;2.28;;;9.80;99.90;;;;;;4997139;28;20217;-70
2023/12/21 12:12:52;;;;;;;6.65;1.70;;;8.80;99.90;;;;;;4988245;28;20215;-70
2023/12/21 12:15:19;;;;;;;13.23;1.73;;;8.40;99.90;;;;;;4960391;28;20240;-69
2023/12/21 12:17:46;;;;;;;5.80;1.47;;;8.20;99.90;;;;;;5000818;28;20232;-69
2023/12/21 12:20:14;;;;;;;5.47;1.27;;;8.00;99.90;;;;;;4987869;28;20300;-70
2023/12/21 12:22:44;;;;;;;5.53;1.30;;;7.90;99.90;;;;;;5010253;28;20681;-70
2023/12/21 12:25:11;;;;;;;5.87;1.20;;;7.90;99.90;;;;;;4989118;28;20662;-70
2023/12/21 12:27:38;;;;;;;8.33;1.47;;;7.90;99.90;;;;;;5006432;28;20549;-69
2023/12/21 12:30:06;;;;;;;9.87;1.30;;;7.30;99.90;;;;;;4963678;28;20215;-70
2023/12/21 12:32:33;;;;;;;9.23;1.67;;;7.30;99.90;;;;;;5005567;28;20210;-69
2023/12/21 12:34:59;;;;;;;5.47;1.27;;;7.60;99.90;;;;;;5001157;28;20614;-69
2023/12/21 12:37:26;;;;;;;14.17;2.70;;;7.60;99.90;;;;;;5007884;28;20800;-70
2023/12/21 12:39:56;;;;;;;14.60;2.13;;;7.60;99.90;;;;;;5008867;28;20212;-69
2023/12/21 12:42:23;;;;;;;3.13;1.27;;;7.60;99.90;;;;;;5009935;28;20205;-69
2023/12/21 12:44:52;;;;;;;9.03;1.60;;;7.60;99.90;;;;;;4975009;28;20240;-70
2023/12/21 12:47:19;;;;;;;6.83;1.73;;;7.60;99.90;;;;;;5004713;28;20527;-70
2023/12/21 12:49:46;;;;;;;10.73;2.33;;;7.50;99.90;;;;;;4997955;28;20720;-70
2023/12/21 12:52:17;;;;;;;9.17;1.30;;;7.60;99.90;;;;;;5001010;28;20213;-69
2023/12/21 12:54:45;;;;;;;8.20;1.63;;;7.40;99.90;;;;;;5020130;28;20190;-70
2023/12/21 12:57:13;;;;;;;9.57;1.63;;;7.50;99.90;;;;;;5006509;28;20212;-69
2023/12/21 12:59:40;;;;;;;13.03;1.87;;;7.50;99.90;;;;;;5012297;28;20221;-69